sensor_id;sensor_type;location;lat;lon;timestamp;pressure;altitude;pressure_sealevel;temperature;humidity
53316;BME280;39204;53.896;11.432;2023-05-07T05:16:53;102215.47;;;10.01;100.00
53316;BME280;39204;53.896;11.432;2023-05-07T05:18:24;102210.28;;;10.00;100.00
53316;BME280;39204;53.896;11.432;2023-05-07T05:19:54;102208.25;;;10.02;100.00
53316;BME280;39204;53.896;11.432;2023-05-07T05:21:24;102206.41;;;10.09;100.00
53316;BME280;39204;53.896;11.432;2023-05-07T05:22:54;102205.75;;;10.00;100.00
53316;BME280;39204;53.896;11.432;2023-05-07T05:24:25;102212.19;;;10.39;100.00
53316;BME280;39204;53.896;11.432;2023-05-07T05:25:56;102207.63;;;10.26;100.00
53316;BME280;39204;53.896;11.432;2023-05-07T05:27:30;102213.00;;;10.39;100.00
53316;BME280;39204;53.896;11.432;2023-05-07T05:29:00;102216.09;;;10.43;100.00
53316;BME280;39204;53.896;11.432;2023-05-07T05:30:30;102211.97;;;10.54;100.00
53316;BME280;39204;53.896;11.432;2023-05-07T05:32:00;102212.75;;;10.68;100.00
53316;BME280;39204;53.896;11.432;2023-05-07T05:33:31;102214.13;;;10.90;100.00
53316;BME280;39204;53.896;11.432;2023-05-07T05:35:01;102219.44;;;11.17;100.00
53316;BME280;39204;53.896;11.432;2023-05-07T05:36:31;102218.66;;;11.03;100.00
53316;BME280;39204;53.896;11.432;2023-05-07T05:38:02;102220.38;;;11.35;100.00
53316;BME280;39204;53.896;11.432;2023-05-07T05:39:33;102224.28;;;10.75;100.00
53316;BME280;39204;53.896;11.432;2023-05-07T05:41:03;102221.25;;;10.45;100.00
53316;BME280;39204;53.896;11.432;2023-05-07T05:42:33;102223.91;;;10.38;100.00
53316;BME280;39204;53.896;11.432;2023-05-07T05:44:03;102231.38;;;10.43;100.00
53316;BME280;39204;53.896;11.432;2023-05-07T05:45:34;102237.50;;;10.23;100.00
53316;BME280;39204;53.896;11.432;2023-05-07T05:47:04;102247.00;;;10.12;100.00
53316;BME280;39204;53.896;11.432;2023-05-07T05:48:35;102230.91;;;10.06;100.00
53316;BME280;39204;53.896;11.432;2023-05-07T05:50:06;102237.53;;;10.36;100.00
53316;BME280;39204;53.896;11.432;2023-05-07T05:51:37;102236.88;;;10.68;100.00
53316;BME280;39204;53.896;11.432;2023-05-07T05:53:07;102233.00;;;10.24;100.00
53316;BME280;39204;53.896;11.432;2023-05-07T05:54:37;102231.78;;;10.33;100.00
53316;BME280;39204;53.896;11.432;2023-05-07T05:56:08;102235.50;;;10.38;100.00
53316;BME280;39204;53.896;11.432;2023-05-07T05:57:38;102233.19;;;10.55;100.00
53316;BME280;39204;53.896;11.432;2023-05-07T05:59:09;102236.28;;;10.59;100.00
53316;BME280;39204;53.896;11.432;2023-05-07T06:00:40;102231.38;;;10.43;100.00
53316;BME280;39204;53.896;11.432;2023-05-07T06:02:10;102236.69;;;10.56;100.00
53316;BME280;39204;53.896;11.432;2023-05-07T06:03:40;102236.91;;;10.48;100.00
53316;BME280;39204;53.896;11.432;2023-05-07T06:05:11;102233.59;;;10.59;100.00
53316;BME280;39204;53.896;11.432;2023-05-07T06:06:41;102237.25;;;10.91;100.00
53316;BME280;39204;53.896;11.432;2023-05-07T06:08:11;102246.94;;;10.92;100.00
53316;BME280;39204;53.896;11.432;2023-05-07T06:09:41;102246.59;;;10.62;100.00
53316;BME280;39204;53.896;11.432;2023-05-07T06:11:12;102250.94;;;10.43;100.00
53316;BME280;39204;53.896;11.432;2023-05-07T06:12:42;102248.28;;;10.43;100.00
53316;BME280;39204;53.896;11.432;2023-05-07T06:14:12;102256.13;;;10.31;100.00
53316;BME280;39204;53.896;11.432;2023-05-07T06:15:42;102260.81;;;10.49;100.00
53316;BME280;39204;53.896;11.432;2023-05-07T06:17:16;102248.88;;;10.52;100.00
53316;BME280;39204;53.896;11.432;2023-05-07T06:18:46;102258.28;;;11.01;100.00
53316;BME280;39204;53.896;11.432;2023-05-07T06:20:16;102251.91;;;11.02;100.00
53316;BME280;39204;53.896;11.432;2023-05-07T06:21:47;102256.03;;;10.98;100.00
53316;BME280;39204;53.896;11.432;2023-05-07T06:23:17;102248.63;;;11.38;100.00
53316;BME280;39204;53.896;11.432;2023-05-07T06:24:47;102250.34;;;11.32;100.00
53316;BME280;39204;53.896;11.432;2023-05-07T06:26:18;102252.88;;;11.07;100.00
53316;BME280;39204;53.896;11.432;2023-05-07T06:27:48;102254.88;;;11.32;100.00
53316;BME280;39204;53.896;11.432;2023-05-07T06:29:18;102251.16;;;11.33;100.00
53316;BME280;39204;53.896;11.432;2023-05-07T06:30:48;102254.72;;;11.20;100.00
53316;BME280;39204;53.896;11.432;2023-05-07T06:32:19;102251.53;;;11.43;100.00
53316;BME280;39204;53.896;11.432;2023-05-07T06:33:50;102254.31;;;11.68;100.00
53316;BME280;39204;53.896;11.432;2023-05-07T06:35:20;102264.56;;;11.84;100.00
53316;BME280;39204;53.896;11.432;2023-05-07T06:36:50;102251.78;;;12.37;100.00
53316;BME280;39204;53.896;11.432;2023-05-07T06:38:21;102246.88;;;12.02;100.00
53316;BME280;39204;53.896;11.432;2023-05-07T06:39:51;102250.44;;;11.96;100.00
53316;BME280;39204;53.896;11.432;2023-05-07T06:41:21;102255.72;;;11.71;100.00
53316;BME280;39204;53.896;11.432;2023-05-07T06:42:51;102249.09;;;12.37;100.00
53316;BME280;39204;53.896;11.432;2023-05-07T06:44:22;102244.69;;;12.86;100.00
53316;BME280;39204;53.896;11.432;2023-05-07T06:45:52;102249.41;;;13.27;100.00
53316;BME280;39204;53.896;11.432;2023-05-07T06:47:22;102253.13;;;12.89;100.00
53316;BME280;39204;53.896;11.432;2023-05-07T06:48:53;102247.88;;;12.57;100.00
53316;BME280;39204;53.896;11.432;2023-05-07T06:50:23;102246.75;;;12.65;100.00
53316;BME280;39204;53.896;11.432;2023-05-07T06:51:53;102254.53;;;12.73;100.00
53316;BME280;39204;53.896;11.432;2023-05-07T06:53:24;102256.44;;;13.10;100.00
53316;BME280;39204;53.896;11.432;2023-05-07T06:54:54;102259.09;;;13.65;100.00
53316;BME280;39204;53.896;11.432;2023-05-07T06:56:24;102250.91;;;13.71;100.00
53316;BME280;39204;53.896;11.432;2023-05-07T06:57:55;102255.50;;;13.83;100.00
53316;BME280;39204;53.896;11.432;2023-05-07T06:59:25;102259.34;;;13.75;100.00
53316;BME280;39204;53.896;11.432;2023-05-07T07:00:55;102253.09;;;14.04;100.00
53316;BME280;39204;53.896;11.432;2023-05-07T07:02:25;102258.31;;;12.91;100.00
53316;BME280;39204;53.896;11.432;2023-05-07T07:03:56;102258.41;;;13.69;100.00
53316;BME280;39204;53.896;11.432;2023-05-07T07:05:26;102250.81;;;13.78;100.00
53316;BME280;39204;53.896;11.432;2023-05-07T07:06:56;102253.03;;;14.35;100.00
53316;BME280;39204;53.896;11.432;2023-05-07T07:08:27;102253.72;;;14.07;100.00
53316;BME280;39204;53.896;11.432;2023-05-07T07:09:57;102253.13;;;14.16;100.00
53316;BME280;39204;53.896;11.432;2023-05-07T07:11:27;102255.81;;;14.04;100.00
53316;BME280;39204;53.896;11.432;2023-05-07T07:12:58;102253.72;;;14.18;100.00
53316;BME280;39204;53.896;11.432;2023-05-07T07:14:28;102259.34;;;13.45;100.00
53316;BME280;39204;53.896;11.432;2023-05-07T07:15:59;102247.19;;;13.42;100.00
53316;BME280;39204;53.896;11.432;2023-05-07T07:17:29;102253.28;;;13.79;100.00
53316;BME280;39204;53.896;11.432;2023-05-07T07:19:00;102247.69;;;13.93;100.00
53316;BME280;39204;53.896;11.432;2023-05-07T07:20:30;102240.59;;;14.45;100.00
53316;BME280;39204;53.896;11.432;2023-05-07T07:22:01;102257.97;;;14.26;100.00
53316;BME280;39204;53.896;11.432;2023-05-07T07:23:32;102245.47;;;14.67;100.00
53316;BME280;39204;53.896;11.432;2023-05-07T07:25:02;102251.28;;;14.40;100.00
53316;BME280;39204;53.896;11.432;2023-05-07T07:26:33;102245.66;;;14.42;100.00
53316;BME280;39204;53.896;11.432;2023-05-07T07:28:04;102253.56;;;14.67;100.00
53316;BME280;39204;53.896;11.432;2023-05-07T07:29:35;102252.28;;;14.04;100.00
53316;BME280;39204;53.896;11.432;2023-05-07T07:31:05;102248.13;;;14.43;100.00
53316;BME280;39204;53.896;11.432;2023-05-07T07:32:37;102246.75;;;14.76;100.00
53316;BME280;39204;53.896;11.432;2023-05-07T07:34:07;102240.16;;;14.95;100.00
53316;BME280;39204;53.896;11.432;2023-05-07T07:35:37;102251.09;;;14.54;100.00
53316;BME280;39204;53.896;11.432;2023-05-07T07:37:08;102249.59;;;14.58;100.00
53316;BME280;39204;53.896;11.432;2023-05-07T07:38:38;102240.84;;;15.03;100.00
53316;BME280;39204;53.896;11.432;2023-05-07T07:40:09;102245.81;;;14.70;100.00
53316;BME280;39204;53.896;11.432;2023-05-07T07:41:39;102247.94;;;14.80;100.00
53316;BME280;39204;53.896;11.432;2023-05-07T07:43:09;102245.25;;;13.91;100.00
53316;BME280;39204;53.896;11.432;2023-05-07T07:44:40;102250.09;;;13.71;100.00
53316;BME280;39204;53.896;11.432;2023-05-07T07:46:10;102254.97;;;13.92;100.00
53316;BME280;39204;53.896;11.432;2023-05-07T07:47:40;102249.75;;;14.33;100.00
53316;BME280;39204;53.896;11.432;2023-05-07T07:49:10;102254.25;;;14.86;100.00
53316;BME280;39204;53.896;11.432;2023-05-07T07:50:41;102258.09;;;15.42;100.00
53316;BME280;39204;53.896;11.432;2023-05-07T07:52:11;102250.63;;;14.80;100.00
53316;BME280;39204;53.896;11.432;2023-05-07T07:53:41;102248.97;;;15.71;100.00
53316;BME280;39204;53.896;11.432;2023-05-07T07:55:12;102248.91;;;15.55;100.00
53316;BME280;39204;53.896;11.432;2023-05-07T07:56:42;102253.91;;;15.63;100.00
53316;BME280;39204;53.896;11.432;2023-05-07T07:58:12;102252.47;;;15.72;100.00
53316;BME280;39204;53.896;11.432;2023-05-07T07:59:43;102255.16;;;15.84;100.00
53316;BME280;39204;53.896;11.432;2023-05-07T08:01:13;102250.22;;;15.12;100.00
53316;BME280;39204;53.896;11.432;2023-05-07T08:02:43;102246.88;;;15.90;100.00
53316;BME280;39204;53.896;11.432;2023-05-07T08:04:14;102243.38;;;15.49;100.00
53316;BME280;39204;53.896;11.432;2023-05-07T08:05:44;102242.19;;;15.86;100.00
53316;BME280;39204;53.896;11.432;2023-05-07T08:07:14;102243.06;;;15.75;100.00
53316;BME280;39204;53.896;11.432;2023-05-07T08:08:44;102246.03;;;15.73;100.00
53316;BME280;39204;53.896;11.432;2023-05-07T08:10:15;102236.97;;;14.87;100.00
53316;BME280;39204;53.896;11.432;2023-05-07T08:11:51;102239.00;;;15.60;100.00
53316;BME280;39204;53.896;11.432;2023-05-07T08:13:21;102244.13;;;16.02;100.00
53316;BME280;39204;53.896;11.432;2023-05-07T08:14:51;102246.19;;;15.26;100.00
53316;BME280;39204;53.896;11.432;2023-05-07T08:16:22;102253.25;;;15.15;100.00
53316;BME280;39204;53.896;11.432;2023-05-07T08:17:52;102240.28;;;14.89;100.00
53316;BME280;39204;53.896;11.432;2023-05-07T08:19:22;102241.63;;;15.15;100.00
53316;BME280;39204;53.896;11.432;2023-05-07T08:20:53;102246.25;;;15.43;100.00
53316;BME280;39204;53.896;11.432;2023-05-07T08:22:23;102250.50;;;15.27;100.00
53316;BME280;39204;53.896;11.432;2023-05-07T08:23:53;102252.59;;;14.85;100.00
53316;BME280;39204;53.896;11.432;2023-05-07T08:25:23;102255.72;;;15.05;100.00
53316;BME280;39204;53.896;11.432;2023-05-07T08:26:54;102242.00;;;15.07;100.00
53316;BME280;39204;53.896;11.432;2023-05-07T08:28:24;102239.00;;;15.32;100.00
53316;BME280;39204;53.896;11.432;2023-05-07T08:29:55;102252.50;;;14.91;100.00
53316;BME280;39204;53.896;11.432;2023-05-07T08:31:25;102249.03;;;15.48;100.00
53316;BME280;39204;53.896;11.432;2023-05-07T08:32:55;102246.88;;;15.33;100.00
53316;BME280;39204;53.896;11.432;2023-05-07T08:34:26;102242.47;;;15.04;100.00
53316;BME280;39204;53.896;11.432;2023-05-07T08:35:56;102247.63;;;15.45;100.00
53316;BME280;39204;53.896;11.432;2023-05-07T08:37:26;102242.41;;;15.27;100.00
53316;BME280;39204;53.896;11.432;2023-05-07T08:38:57;102247.94;;;15.32;100.00
53316;BME280;39204;53.896;11.432;2023-05-07T08:40:28;102239.59;;;15.62;100.00
53316;BME280;39204;53.896;11.432;2023-05-07T08:42:00;102243.56;;;15.43;100.00
53316;BME280;39204;53.896;11.432;2023-05-07T08:43:32;102244.28;;;15.67;100.00
53316;BME280;39204;53.896;11.432;2023-05-07T08:45:04;102241.31;;;15.97;100.00
53316;BME280;39204;53.896;11.432;2023-05-07T08:46:39;102243.03;;;15.46;100.00
53316;BME280;39204;53.896;11.432;2023-05-07T08:48:14;102246.69;;;15.11;100.00
53316;BME280;39204;53.896;11.432;2023-05-07T08:49:45;102241.13;;;15.58;100.00
53316;BME280;39204;53.896;11.432;2023-05-07T08:51:18;102244.28;;;15.27;100.00
53316;BME280;39204;53.896;11.432;2023-05-07T08:52:48;102247.75;;;15.10;100.00
53316;BME280;39204;53.896;11.432;2023-05-07T08:54:20;102242.19;;;15.29;100.00
53316;BME280;39204;53.896;11.432;2023-05-07T08:55:51;102242.56;;;15.09;100.00
53316;BME280;39204;53.896;11.432;2023-05-07T08:57:21;102242.69;;;15.14;100.00
53316;BME280;39204;53.896;11.432;2023-05-07T08:58:53;102246.31;;;15.19;100.00
53316;BME280;39204;53.896;11.432;2023-05-07T09:00:28;102235.00;;;14.82;100.00
53316;BME280;39204;53.896;11.432;2023-05-07T09:01:58;102238.69;;;15.16;100.00
53316;BME280;39204;53.896;11.432;2023-05-07T09:03:30;102244.06;;;15.16;100.00
53316;BME280;39204;53.896;11.432;2023-05-07T09:05:00;102233.59;;;14.91;100.00
53316;BME280;39204;53.896;11.432;2023-05-07T09:06:31;102238.72;;;15.45;100.00
53316;BME280;39204;53.896;11.432;2023-05-07T09:08:06;102234.66;;;15.31;100.00
53316;BME280;39204;53.896;11.432;2023-05-07T09:09:37;102235.84;;;15.23;100.00
53316;BME280;39204;53.896;11.432;2023-05-07T09:11:07;102234.72;;;15.07;100.00
53316;BME280;39204;53.896;11.432;2023-05-07T09:12:38;102242.69;;;15.42;100.00
53316;BME280;39204;53.896;11.432;2023-05-07T09:14:09;102241.66;;;15.43;100.00
53316;BME280;39204;53.896;11.432;2023-05-07T09:15:39;102243.56;;;15.43;100.00
53316;BME280;39204;53.896;11.432;2023-05-07T09:17:09;102236.72;;;15.81;100.00
53316;BME280;39204;53.896;11.432;2023-05-07T09:18:41;102233.59;;;15.60;100.00
53316;BME280;39204;53.896;11.432;2023-05-07T09:20:12;102227.84;;;15.85;100.00
53316;BME280;39204;53.896;11.432;2023-05-07T09:21:42;102233.38;;;15.62;100.00
53316;BME280;39204;53.896;11.432;2023-05-07T09:23:13;102224.50;;;16.12;100.00
53316;BME280;39204;53.896;11.432;2023-05-07T09:24:48;102223.78;;;16.00;100.00
53316;BME280;39204;53.896;11.432;2023-05-07T09:26:19;102227.00;;;15.68;98.13
53316;BME280;39204;53.896;11.432;2023-05-07T09:27:50;102239.03;;;15.20;100.00
53316;BME280;39204;53.896;11.432;2023-05-07T09:29:21;102237.41;;;15.47;100.00
53316;BME280;39204;53.896;11.432;2023-05-07T09:30:52;102239.06;;;15.08;100.00
53316;BME280;39204;53.896;11.432;2023-05-07T09:32:22;102235.44;;;15.03;99.47
53316;BME280;39204;53.896;11.432;2023-05-07T09:33:52;102237.41;;;15.07;100.00
53316;BME280;39204;53.896;11.432;2023-05-07T09:35:23;102231.53;;;15.51;100.00
53316;BME280;39204;53.896;11.432;2023-05-07T09:36:59;102224.44;;;16.07;100.00
53316;BME280;39204;53.896;11.432;2023-05-07T09:38:32;102233.41;;;16.46;99.86
53316;BME280;39204;53.896;11.432;2023-05-07T09:40:02;102238.47;;;16.20;99.22
53316;BME280;39204;53.896;11.432;2023-05-07T09:41:43;102237.38;;;16.05;96.92
53316;BME280;39204;53.896;11.432;2023-05-07T09:43:13;102239.50;;;15.86;98.10
53316;BME280;39204;53.896;11.432;2023-05-07T09:44:44;102235.56;;;15.77;97.26
53316;BME280;39204;53.896;11.432;2023-05-07T09:46:15;102231.38;;;15.86;98.13
53316;BME280;39204;53.896;11.432;2023-05-07T09:47:48;102231.97;;;16.05;98.69
53316;BME280;39204;53.896;11.432;2023-05-07T09:49:23;102232.19;;;15.69;97.97
53316;BME280;39204;53.896;11.432;2023-05-07T09:50:55;102234.56;;;15.83;98.29
53316;BME280;39204;53.896;11.432;2023-05-07T09:52:28;102232.63;;;15.95;97.87
53316;BME280;39204;53.896;11.432;2023-05-07T09:54:04;102237.84;;;16.02;99.80
53316;BME280;39204;53.896;11.432;2023-05-07T09:55:34;102237.97;;;16.40;96.29
53316;BME280;39204;53.896;11.432;2023-05-07T09:57:05;102232.59;;;16.62;98.79
53316;BME280;39204;53.896;11.432;2023-05-07T09:58:36;102244.94;;;16.36;95.97
53316;BME280;39204;53.896;11.432;2023-05-07T10:00:08;102235.41;;;16.51;98.45
53316;BME280;39204;53.896;11.432;2023-05-07T10:01:44;102247.53;;;15.97;93.65
53316;BME280;39204;53.896;11.432;2023-05-07T10:03:15;102236.88;;;16.41;97.42
53316;BME280;39204;53.896;11.432;2023-05-07T10:04:46;102240.34;;;16.92;97.03
53316;BME280;39204;53.896;11.432;2023-05-07T10:06:17;102238.28;;;16.44;94.44
53316;BME280;39204;53.896;11.432;2023-05-07T10:07:48;102237.56;;;16.70;94.93
53316;BME280;39204;53.896;11.432;2023-05-07T10:09:20;102243.81;;;16.88;95.89
53316;BME280;39204;53.896;11.432;2023-05-07T10:10:51;102250.03;;;16.72;93.29
53316;BME280;39204;53.896;11.432;2023-05-07T10:12:21;102242.69;;;16.84;94.58
53316;BME280;39204;53.896;11.432;2023-05-07T10:13:53;102243.50;;;16.84;94.75
53316;BME280;39204;53.896;11.432;2023-05-07T10:15:24;102240.22;;;17.26;91.77
53316;BME280;39204;53.896;11.432;2023-05-07T10:16:55;102244.41;;;16.73;91.95
53316;BME280;39204;53.896;11.432;2023-05-07T10:18:26;102242.28;;;16.75;97.02
53316;BME280;39204;53.896;11.432;2023-05-07T10:19:59;102242.72;;;16.50;94.95
53316;BME280;39204;53.896;11.432;2023-05-07T10:21:30;102232.66;;;16.67;92.98
53316;BME280;39204;53.896;11.432;2023-05-07T10:23:05;102234.28;;;16.85;91.58
53316;BME280;39204;53.896;11.432;2023-05-07T10:24:36;102234.22;;;16.80;94.54
53316;BME280;39204;53.896;11.432;2023-05-07T10:26:08;102247.56;;;16.14;94.20
53316;BME280;39204;53.896;11.432;2023-05-07T10:27:38;102252.38;;;15.95;94.49
53316;BME280;39204;53.896;11.432;2023-05-07T10:29:24;102235.00;;;16.42;96.26
53316;BME280;39204;53.896;11.432;2023-05-07T10:31:33;102245.16;;;16.52;94.77
53316;BME280;39204;53.896;11.432;2023-05-07T10:33:04;102243.38;;;17.18;92.07
53316;BME280;39204;53.896;11.432;2023-05-07T10:34:39;102251.69;;;17.33;89.14
53316;BME280;39204;53.896;11.432;2023-05-07T10:36:10;102243.50;;;16.84;90.12
53316;BME280;39204;53.896;11.432;2023-05-07T10:37:41;102255.09;;;17.24;90.55
53316;BME280;39204;53.896;11.432;2023-05-07T10:39:12;102258.03;;;17.66;88.46
53316;BME280;39204;53.896;11.432;2023-05-07T10:40:43;102249.84;;;17.39;88.16
53316;BME280;39204;53.896;11.432;2023-05-07T10:42:14;102242.53;;;17.61;88.78
53316;BME280;39204;53.896;11.432;2023-05-07T10:43:45;102247.16;;;16.95;90.23
53316;BME280;39204;53.896;11.432;2023-05-07T10:45:15;102236.94;;;16.80;91.66
53316;BME280;39204;53.896;11.432;2023-05-07T10:47:04;102236.31;;;16.23;92.85
53316;BME280;39204;53.896;11.432;2023-05-07T10:50:30;102244.66;;;15.87;96.90
53316;BME280;39204;53.896;11.432;2023-05-07T10:52:20;102244.50;;;16.28;94.38
53316;BME280;39204;53.896;11.432;2023-05-07T10:55:40;102247.75;;;16.63;90.72
53316;BME280;39204;53.896;11.432;2023-05-07T10:57:34;102246.59;;;17.15;89.52
53316;BME280;39204;53.896;11.432;2023-05-07T11:00:56;102239.19;;;17.54;88.71
53316;BME280;39204;53.896;11.432;2023-05-07T11:04:30;102240.03;;;17.60;86.09
53316;BME280;39204;53.896;11.432;2023-05-07T11:06:15;102246.25;;;17.55;86.44
53316;BME280;39204;53.896;11.432;2023-05-07T11:07:57;102237.47;;;16.99;87.85
53316;BME280;39204;53.896;11.432;2023-05-07T11:13:18;102244.78;;;16.99;88.99
53316;BME280;39204;53.896;11.432;2023-05-07T11:14:48;102242.88;;;16.99;91.71
53316;BME280;39204;53.896;11.432;2023-05-07T11:16:24;102236.09;;;17.46;90.36
53316;BME280;39204;53.896;11.432;2023-05-07T11:17:56;102237.19;;;17.01;89.36
53316;BME280;39204;53.896;11.432;2023-05-07T11:19:52;102247.91;;;17.12;91.70
53316;BME280;39204;53.896;11.432;2023-05-07T11:21:39;102242.75;;;16.89;88.92
53316;BME280;39204;53.896;11.432;2023-05-07T11:25:03;102238.91;;;17.78;85.43
53316;BME280;39204;53.896;11.432;2023-05-07T11:26:48;102231.94;;;18.24;83.75
53316;BME280;39204;53.896;11.432;2023-05-07T11:28:19;102238.13;;;18.14;80.54
53316;BME280;39204;53.896;11.432;2023-05-07T11:29:50;102234.84;;;18.50;80.87
53316;BME280;39204;53.896;11.432;2023-05-07T11:31:23;102243.69;;;18.72;78.80
53316;BME280;39204;53.896;11.432;2023-05-07T11:32:53;102242.09;;;18.39;79.82
53316;BME280;39204;53.896;11.432;2023-05-07T11:34:25;102237.94;;;18.26;79.77
53316;BME280;39204;53.896;11.432;2023-05-07T11:35:57;102230.81;;;19.05;80.63
53316;BME280;39204;53.896;11.432;2023-05-07T11:37:28;102229.72;;;18.96;78.79
53316;BME280;39204;53.896;11.432;2023-05-07T11:38:59;102227.34;;;19.20;77.14
53316;BME280;39204;53.896;11.432;2023-05-07T11:40:30;102228.38;;;19.03;77.31
53316;BME280;39204;53.896;11.432;2023-05-07T11:42:00;102231.06;;;18.51;77.51
53316;BME280;39204;53.896;11.432;2023-05-07T11:43:32;102225.03;;;18.44;78.06
53316;BME280;39204;53.896;11.432;2023-05-07T11:45:04;102236.94;;;18.80;78.26
53316;BME280;39204;53.896;11.432;2023-05-07T11:46:35;102225.63;;;18.98;76.58
53316;BME280;39204;53.896;11.432;2023-05-07T11:48:06;102230.22;;;18.93;76.91
53316;BME280;39204;53.896;11.432;2023-05-07T11:49:36;102237.63;;;18.55;77.78
53316;BME280;39204;53.896;11.432;2023-05-07T11:51:07;102231.81;;;18.41;76.36
53316;BME280;39204;53.896;11.432;2023-05-07T11:52:50;102239.19;;;17.81;77.88
53316;BME280;39204;53.896;11.432;2023-05-07T11:54:20;102235.50;;;17.65;77.01
53316;BME280;39204;53.896;11.432;2023-05-07T11:55:55;102240.81;;;17.55;79.17
53316;BME280;39204;53.896;11.432;2023-05-07T11:57:26;102230.63;;;17.18;81.65
53316;BME280;39204;53.896;11.432;2023-05-07T11:58:57;102233.78;;;16.88;79.32
53316;BME280;39204;53.896;11.432;2023-05-07T12:00:27;102235.91;;;16.86;81.11
53316;BME280;39204;53.896;11.432;2023-05-07T12:01:57;102242.16;;;16.87;80.88
53316;BME280;39204;53.896;11.432;2023-05-07T12:03:29;102237.06;;;17.12;79.50
53316;BME280;39204;53.896;11.432;2023-05-07T12:05:00;102240.25;;;17.53;77.95
53316;BME280;39204;53.896;11.432;2023-05-07T12:06:30;102235.78;;;16.98;78.88
53316;BME280;39204;53.896;11.432;2023-05-07T12:08:00;102235.38;;;16.84;80.70
53316;BME280;39204;53.896;11.432;2023-05-07T12:09:32;102244.44;;;16.95;80.42
53316;BME280;39204;53.896;11.432;2023-05-07T12:11:07;102238.75;;;17.40;80.77
53316;BME280;39204;53.896;11.432;2023-05-07T12:12:41;102239.84;;;17.66;78.85
53316;BME280;39204;53.896;11.432;2023-05-07T12:14:11;102230.91;;;18.30;77.74
53316;BME280;39204;53.896;11.432;2023-05-07T12:15:42;102243.81;;;18.93;77.09
53316;BME280;39204;53.896;11.432;2023-05-07T12:17:14;102232.81;;;19.25;73.12
53316;BME280;39204;53.896;11.432;2023-05-07T12:18:45;102244.56;;;18.83;71.22
53316;BME280;39204;53.896;11.432;2023-05-07T12:20:15;102231.09;;;19.08;72.84
53316;BME280;39204;53.896;11.432;2023-05-07T12:21:48;102232.94;;;19.76;72.70
53316;BME280;39204;53.896;11.432;2023-05-07T12:23:19;102245.03;;;19.27;70.51
53316;BME280;39204;53.896;11.432;2023-05-07T12:24:57;102239.59;;;19.17;72.40
53316;BME280;39204;53.896;11.432;2023-05-07T12:26:27;102242.38;;;19.43;68.92
53316;BME280;39204;53.896;11.432;2023-05-07T12:28:00;102240.53;;;19.69;70.31
53316;BME280;39204;53.896;11.432;2023-05-07T12:29:30;102247.09;;;19.78;70.84
53316;BME280;39204;53.896;11.432;2023-05-07T12:31:01;102231.03;;;19.87;68.89
53316;BME280;39204;53.896;11.432;2023-05-07T12:32:31;102235.13;;;19.79;72.03
53316;BME280;39204;53.896;11.432;2023-05-07T12:34:06;102238.91;;;18.47;68.65
53316;BME280;39204;53.896;11.432;2023-05-07T12:35:41;102238.38;;;18.13;71.59
53316;BME280;39204;53.896;11.432;2023-05-07T12:37:12;102225.84;;;18.86;73.63
53316;BME280;39204;53.896;11.432;2023-05-07T12:38:42;102231.38;;;19.07;70.70
53316;BME280;39204;53.896;11.432;2023-05-07T12:40:13;102234.44;;;19.31;69.98
53316;BME280;39204;53.896;11.432;2023-05-07T12:41:57;102228.47;;;19.39;69.58
53316;BME280;39204;53.896;11.432;2023-05-07T12:43:31;102227.38;;;19.35;71.60
53316;BME280;39204;53.896;11.432;2023-05-07T12:45:11;102231.28;;;19.65;71.60
53316;BME280;39204;53.896;11.432;2023-05-07T12:46:41;102234.25;;;19.58;67.34
53316;BME280;39204;53.896;11.432;2023-05-07T12:48:12;102226.00;;;19.27;67.51
53316;BME280;39204;53.896;11.432;2023-05-07T12:49:42;102234.00;;;18.86;67.52
53316;BME280;39204;53.896;11.432;2023-05-07T12:51:13;102236.28;;;19.10;67.81
53316;BME280;39204;53.896;11.432;2023-05-07T12:52:47;102231.88;;;19.77;68.61
53316;BME280;39204;53.896;11.432;2023-05-07T12:54:34;102240.03;;;19.77;67.50
53316;BME280;39204;53.896;11.432;2023-05-07T12:56:05;102239.31;;;19.24;67.86
53316;BME280;39204;53.896;11.432;2023-05-07T12:57:39;102232.66;;;18.89;72.05
53316;BME280;39204;53.896;11.432;2023-05-07T12:59:10;102233.47;;;18.84;68.29
53316;BME280;39204;53.896;11.432;2023-05-07T13:00:41;102242.44;;;18.85;68.49
53316;BME280;39204;53.896;11.432;2023-05-07T13:02:13;102236.03;;;19.17;71.10
53316;BME280;39204;53.896;11.432;2023-05-07T13:03:48;102237.16;;;19.31;68.14
53316;BME280;39204;53.896;11.432;2023-05-07T13:05:18;102233.09;;;19.39;68.37
53316;BME280;39204;53.896;11.432;2023-05-07T13:06:49;102231.97;;;19.14;66.69
53316;BME280;39204;53.896;11.432;2023-05-07T13:08:34;102231.31;;;19.80;67.17
53316;BME280;39204;53.896;11.432;2023-05-07T13:10:05;102229.03;;;19.41;64.72
53316;BME280;39204;53.896;11.432;2023-05-07T13:11:35;102231.59;;;19.73;67.22
53316;BME280;39204;53.896;11.432;2023-05-07T13:13:05;102231.47;;;19.38;68.31
53316;BME280;39204;53.896;11.432;2023-05-07T13:14:36;102248.22;;;18.99;65.66
53316;BME280;39204;53.896;11.432;2023-05-07T13:16:08;102250.09;;;18.56;66.12
53316;BME280;39204;53.896;11.432;2023-05-07T13:17:39;102233.25;;;18.54;66.32
53316;BME280;39204;53.896;11.432;2023-05-07T13:19:09;102235.78;;;17.91;69.33
53316;BME280;39204;53.896;11.432;2023-05-07T13:20:40;102230.69;;;18.00;68.59